KBKW/BKW METAR and TAF weather

Enter ICAO airport designator
Station Type Date Time Source
KBKW METAR 2019/04/25 21:51 UTC NOAA

KBKW 252151Z AUTO 18007KT 10SM BKN100 BKN110 22/09 A2984 RMK AO2 RAE04 SLP077 P0000 T02220089


Station Type Date Time Source
KBKW Decoded METAR 2019/04/25 21:51 UTC NOAA

RALEIGH COUNTY MEM AIRPORT , WV, United States (KBKW) 37-48N 081-07W 764M
Apr 25, 2019 - 05:51 PM EDT / 2019.04.25 2151 UTC
Wind: from the S (180 degrees) at 8 MPH (7 KT):0
Visibility: 10 mile(s):0
Sky conditions: mostly cloudy
Precipitation last hour: A trace
Temperature: 72.0 F (22.2 C)
Dew Point: 48.0 F (8.9 C)
Relative Humidity: 42%
Pressure (altimeter): 29.84 in. Hg (1010 hPa)
ob: KBKW 252151Z AUTO 18007KT 10SM BKN100 BKN110 22/09 A2984 RMK AO2 RAE04 SLP077 P0000 T02220089
cycle: 22

Station Type Date Time Source
KBKW TAF 2019/04/25 18:22 UTC NOAA

TAF KBKW 251720Z 2518/2618 20006KT P6SM BKN120
FM260800 17011KT P6SM SHRA OVC040
FM261400 23017G25KT 5SM SHRA OVC025
FM261600 28017G25KT 4SM RA BR OVC015

Example: see airport list